createdAt,value
2019-04-12T00:01:12.764Z,7.00
2019-04-12T00:03:42.262Z,7.00
2019-04-12T00:06:11.814Z,7.00
2019-04-12T00:08:41.351Z,6.60
2019-04-12T00:11:12.281Z,7.10
2019-04-12T00:13:41.740Z,7.00
2019-04-12T00:16:11.886Z,7.40
2019-04-12T00:18:45.224Z,6.70
2019-04-12T00:21:15.520Z,6.60
2019-04-12T00:23:45.844Z,6.20
2019-04-12T00:26:18.485Z,6.20
2019-04-12T00:28:49.952Z,6.60
2019-04-12T00:31:22.198Z,7.10
2019-04-12T00:33:52.491Z,6.50
2019-04-12T00:36:22.412Z,5.90
2019-04-12T00:38:51.651Z,5.90
2019-04-12T00:41:21.116Z,5.80
2019-04-12T00:43:50.560Z,6.50
2019-04-12T00:46:20.021Z,6.80
2019-04-12T00:48:49.473Z,6.60
2019-04-12T00:51:18.951Z,6.70
2019-04-12T00:53:48.385Z,6.50
2019-04-12T00:56:17.851Z,6.40
2019-04-12T00:58:47.349Z,6.80
2019-04-12T01:01:35.780Z,6.00
2019-04-12T01:04:08.821Z,6.20
2019-04-12T01:06:38.319Z,6.20
2019-04-12T01:09:09.452Z,5.70
2019-04-12T01:11:38.917Z,5.50
2019-04-12T01:14:08.386Z,6.00
2019-04-12T01:16:37.861Z,5.90
2019-04-12T01:19:07.313Z,5.60
2019-04-12T01:21:37.606Z,5.90
2019-04-12T01:24:10.902Z,6.60
2019-04-12T01:26:39.571Z,6.60
2019-04-12T01:29:09.021Z,6.90
2019-04-12T01:31:38.531Z,6.30
2019-04-12T01:34:08.010Z,6.80
2019-04-12T01:36:37.434Z,6.60
2019-04-12T01:39:07.265Z,6.70
2019-04-12T01:41:36.706Z,6.10
2019-04-12T01:44:06.176Z,6.50
2019-04-12T01:46:35.620Z,6.40
2019-04-12T01:49:05.097Z,6.00
2019-04-12T01:51:35.659Z,6.30
2019-04-12T01:54:05.133Z,6.50
2019-04-12T01:56:34.576Z,5.90
2019-04-12T01:59:04.198Z,6.80
2019-04-12T02:01:33.648Z,6.50
2019-04-12T02:04:03.140Z,7.10
2019-04-12T02:06:32.592Z,6.70
2019-04-12T02:09:02.054Z,6.90
2019-04-12T02:11:31.485Z,7.10
2019-04-12T02:14:00.948Z,6.90
2019-04-12T02:16:30.395Z,6.50
2019-04-12T02:18:59.928Z,6.80
2019-04-12T02:21:29.377Z,6.30
2019-04-12T02:23:58.860Z,5.10
2019-04-12T02:26:28.302Z,5.50
2019-04-12T02:28:57.782Z,5.20
2019-04-12T02:31:56.759Z,5.10
2019-04-12T02:34:26.437Z,5.40
2019-04-12T02:36:55.882Z,5.60
2019-04-12T02:39:25.367Z,5.20
2019-04-12T02:41:56.543Z,5.90
2019-04-12T02:44:26.736Z,6.30
2019-04-12T02:47:13.429Z,6.10
2019-04-12T02:49:53.299Z,6.00
2019-04-12T02:52:30.777Z,5.60
2019-04-12T02:55:17.421Z,6.00
2019-04-12T02:58:01.585Z,6.20
2019-04-12T03:00:40.581Z,5.70
2019-04-12T03:03:11.436Z,6.00
2019-04-12T03:05:41.019Z,5.50
2019-04-12T03:08:10.512Z,5.50
2019-04-12T03:10:40.705Z,5.30
2019-04-12T03:13:12.458Z,5.80
2019-04-12T03:15:42.949Z,5.70
2019-04-12T03:18:13.283Z,6.10
2019-04-12T03:20:42.865Z,6.40
2019-04-12T03:23:12.318Z,5.30
2019-04-12T03:25:52.985Z,4.90
2019-04-12T03:28:13.781Z,5.80
2019-04-12T03:30:43.800Z,5.40
2019-04-12T03:33:14.070Z,5.70
2019-04-12T03:35:44.642Z,5.40
2019-04-12T03:38:14.085Z,5.00
2019-04-12T03:40:44.054Z,5.60
2019-04-12T03:43:13.746Z,5.90
2019-04-12T03:45:43.470Z,6.00
2019-04-12T03:48:13.027Z,6.00
2019-04-12T03:50:42.500Z,5.90
2019-04-12T03:53:12.141Z,6.20
2019-04-12T03:55:42.221Z,5.80
2019-04-12T03:58:11.693Z,5.80
2019-04-12T04:00:43.889Z,6.00
2019-04-12T04:03:13.327Z,6.00
2019-04-12T04:05:42.795Z,6.20
2019-04-12T04:08:12.656Z,6.70
2019-04-12T04:10:42.141Z,6.50
2019-04-12T04:13:11.782Z,6.50
2019-04-12T04:15:41.592Z,6.30
2019-04-12T04:18:18.272Z,6.00
2019-04-12T04:21:13.528Z,5.90
2019-04-12T04:24:08.279Z,6.20
2019-04-12T04:26:52.548Z,6.30
2019-04-12T04:29:46.708Z,6.70
2019-04-12T04:32:44.724Z,6.50
2019-04-12T04:35:15.016Z,6.70
2019-04-12T04:37:48.068Z,6.80
2019-04-12T04:40:19.706Z,6.80
2019-04-12T04:42:49.670Z,6.90
2019-04-12T04:45:19.438Z,6.80
2019-04-12T04:47:49.099Z,6.00
2019-04-12T04:50:18.754Z,6.50
2019-04-12T04:52:48.358Z,6.60
2019-04-12T04:55:17.833Z,6.60
2019-04-12T04:57:47.314Z,6.10
2019-04-12T05:00:17.089Z,6.60
2019-04-12T05:02:46.881Z,6.60
2019-04-12T05:05:16.374Z,6.80
2019-04-12T05:07:45.877Z,6.80
2019-04-12T05:10:15.625Z,6.50
2019-04-12T05:12:45.280Z,6.60
2019-04-12T05:15:16.065Z,6.60
2019-04-12T05:17:45.860Z,6.30
2019-04-12T05:20:15.813Z,6.40
2019-04-12T05:22:45.546Z,6.40
2019-04-12T05:25:15.354Z,6.50
2019-04-12T05:27:45.092Z,6.70
2019-04-12T05:30:14.938Z,6.50
2019-04-12T05:32:44.800Z,6.10
2019-04-12T05:35:14.563Z,6.30
2019-04-12T05:37:44.341Z,6.00
2019-04-12T05:40:14.110Z,6.20
2019-04-12T05:42:43.573Z,6.40
2019-04-12T05:45:14.659Z,6.50
2019-04-12T05:48:03.151Z,6.60
2019-04-12T05:50:40.005Z,6.30
2019-04-12T05:53:09.613Z,6.60
2019-04-12T05:55:43.486Z,6.60
2019-04-12T05:58:41.208Z,5.80
2019-04-12T06:01:32.879Z,4.70
2019-04-12T06:04:02.648Z,5.00
2019-04-12T06:06:33.202Z,5.30
2019-04-12T06:09:02.759Z,4.90
2019-04-12T06:11:32.520Z,4.90
2019-04-12T06:14:02.261Z,4.80
2019-04-12T06:16:32.697Z,5.00
2019-04-12T06:19:03.860Z,5.20
2019-04-12T06:21:42.961Z,4.80
2019-04-12T06:24:13.216Z,4.20
2019-04-12T06:26:54.255Z,4.60
2019-04-12T06:29:23.802Z,4.20
2019-04-12T06:31:53.368Z,4.50
2019-04-12T06:34:23.033Z,5.20
2019-04-12T06:36:52.584Z,5.70
2019-04-12T06:39:22.064Z,5.60
2019-04-12T06:41:51.569Z,5.10
2019-04-12T06:44:21.116Z,4.60
2019-04-12T06:46:50.613Z,5.00
2019-04-12T06:49:20.102Z,4.90
2019-04-12T06:51:49.669Z,4.90
2019-04-12T06:54:19.214Z,4.80
2019-04-12T06:57:22.208Z,4.80
2019-04-12T07:00:01.991Z,5.30
2019-04-12T07:02:32.809Z,4.90
2019-04-12T07:05:02.273Z,4.70
2019-04-12T07:07:31.785Z,5.20
2019-04-12T07:10:01.340Z,5.40
2019-04-12T07:12:30.797Z,6.00
2019-04-12T07:15:00.266Z,5.70
2019-04-12T07:17:29.779Z,5.60
2019-04-12T07:19:59.242Z,5.30
2019-04-12T07:22:28.677Z,5.40
2019-04-12T07:24:58.275Z,5.50
2019-04-12T07:27:34.331Z,5.70
2019-04-12T07:29:58.857Z,5.50
2019-04-12T07:32:28.322Z,5.20
2019-04-12T07:34:57.801Z,5.10
2019-04-12T07:37:27.253Z,5.40
2019-04-12T07:39:56.749Z,6.20
2019-04-12T07:42:26.228Z,6.00
2019-04-12T07:44:55.694Z,6.00
2019-04-12T07:47:25.137Z,6.10
2019-04-12T07:49:56.180Z,6.30
2019-04-12T07:52:26.332Z,6.10
2019-04-12T07:55:12.185Z,6.50
2019-04-12T07:58:03.492Z,6.00
2019-04-12T08:00:56.300Z,6.30
2019-04-12T08:03:34.747Z,6.00
2019-04-12T08:06:09.285Z,6.00
2019-04-12T08:08:38.745Z,6.30
2019-04-12T08:11:08.232Z,6.70
2019-04-12T08:13:37.769Z,6.80
2019-04-12T08:16:07.246Z,6.50
2019-04-12T08:18:36.682Z,6.60
2019-04-12T08:21:06.166Z,7.00
2019-04-12T08:23:35.743Z,7.20
2019-04-12T08:26:06.017Z,7.20
2019-04-12T08:28:35.492Z,7.30
2019-04-12T08:31:04.981Z,7.20
2019-04-12T08:33:34.441Z,7.00
2019-04-12T08:36:05.588Z,7.20
2019-04-12T08:38:35.087Z,6.80
2019-04-12T08:41:04.608Z,6.70
2019-04-12T08:43:34.142Z,7.20
2019-04-12T08:46:03.796Z,7.40
2019-04-12T08:48:33.291Z,7.30
2019-04-12T08:51:02.789Z,7.50
2019-04-12T08:53:34.045Z,7.10
2019-04-12T08:56:03.917Z,7.50
2019-04-12T08:58:33.602Z,7.40
2019-04-12T09:01:04.682Z,7.30
2019-04-12T09:03:34.176Z,7.30
2019-04-12T09:06:03.925Z,7.40
2019-04-12T09:08:36.721Z,7.80
2019-04-12T09:11:06.385Z,7.70
2019-04-12T09:13:35.983Z,7.90
2019-04-12T09:16:05.586Z,7.90
2019-04-12T09:18:41.070Z,7.80
2019-04-12T09:21:30.971Z,7.50
2019-04-12T09:24:07.259Z,7.70
2019-04-12T09:26:37.088Z,7.70
2019-04-12T09:29:06.515Z,7.90
2019-04-12T09:31:36.142Z,7.70
2019-04-12T09:34:16.381Z,8.10
2019-04-12T09:36:36.926Z,8.10
2019-04-12T09:39:07.292Z,8.10
2019-04-12T09:41:36.798Z,8.10
2019-04-12T09:44:06.284Z,7.70
2019-04-12T09:46:37.556Z,8.00
2019-04-12T09:49:07.020Z,8.00
2019-04-12T09:51:36.544Z,8.40
2019-04-12T09:54:06.144Z,8.40
2019-04-12T09:56:35.663Z,8.30
2019-04-12T09:59:05.230Z,8.40
2019-04-12T10:01:34.749Z,8.70
2019-04-12T10:04:04.534Z,8.50
2019-04-12T10:06:34.090Z,8.40
2019-04-12T10:09:03.855Z,8.60
2019-04-12T10:11:34.586Z,8.60
2019-04-12T10:14:07.075Z,8.70
2019-04-12T10:16:35.604Z,8.50
2019-04-12T10:19:05.094Z,8.20
2019-04-12T10:21:34.671Z,8.30
2019-04-12T10:24:04.300Z,8.60
2019-04-12T10:26:33.932Z,8.80
2019-04-12T10:29:03.387Z,8.90
2019-04-12T10:31:32.982Z,8.60
2019-04-12T10:34:02.892Z,8.50
2019-04-12T10:36:32.430Z,8.70
2019-04-12T10:39:22.472Z,9.20
2019-04-12T10:41:52.087Z,9.30
2019-04-12T10:44:29.469Z,9.20
2019-04-12T10:47:02.812Z,9.30
2019-04-12T10:49:50.148Z,9.40
2019-04-12T10:52:38.673Z,9.30
2019-04-12T10:55:09.827Z,9.00
2019-04-12T10:57:39.420Z,9.30
2019-04-12T11:00:10.135Z,9.20
2019-04-12T11:02:39.670Z,9.40
2019-04-12T11:05:09.441Z,9.30
2019-04-12T11:07:38.976Z,9.60
2019-04-12T11:10:08.750Z,9.60
2019-04-12T11:12:38.268Z,9.90
2019-04-12T11:15:20.371Z,9.50
2019-04-12T11:17:39.269Z,9.60
2019-04-12T11:20:08.924Z,9.50
2019-04-12T11:22:38.414Z,9.70
2019-04-12T11:25:09.388Z,9.90
2019-04-12T11:27:38.964Z,9.90
2019-04-12T11:30:08.641Z,9.70
2019-04-12T11:32:38.151Z,9.90
2019-04-12T11:35:10.254Z,9.80
2019-04-12T11:37:38.907Z,9.50
2019-04-12T11:40:08.793Z,9.70
2019-04-12T11:42:38.313Z,9.60
2019-04-12T11:45:08.518Z,9.70
2019-04-12T11:47:38.143Z,9.60
2019-04-12T11:50:08.520Z,9.80
2019-04-12T11:52:38.053Z,9.80
2019-04-12T11:55:07.775Z,9.80
2019-04-12T11:57:37.964Z,10.00
2019-04-12T12:00:10.552Z,9.60
2019-04-12T12:02:56.853Z,9.80
2019-04-12T12:05:45.421Z,9.80
2019-04-12T12:08:51.958Z,10.10
2019-04-12T12:11:42.522Z,10.00
2019-04-12T12:14:42.853Z,9.60
2019-04-12T12:17:26.661Z,9.70
2019-04-12T12:19:56.320Z,10.10
2019-04-12T12:22:25.922Z,10.00
2019-04-12T12:24:55.587Z,9.90
2019-04-12T12:27:27.113Z,10.00
2019-04-12T12:29:56.775Z,10.30
2019-04-12T12:32:26.384Z,10.30
2019-04-12T12:34:55.981Z,10.00
2019-04-12T12:37:25.433Z,10.20
2019-04-12T12:39:56.033Z,9.50
2019-04-12T12:42:25.899Z,9.30
2019-04-12T12:44:55.579Z,9.90
2019-04-12T12:47:25.160Z,10.00
2019-04-12T12:49:54.674Z,10.00
2019-04-12T12:52:24.144Z,10.10
2019-04-12T12:54:54.729Z,10.50
2019-04-12T12:57:24.176Z,10.20
2019-04-12T12:59:55.098Z,9.70
2019-04-12T13:02:24.906Z,9.80
2019-04-12T13:04:54.518Z,10.00
2019-04-12T13:07:24.051Z,10.10
2019-04-12T13:09:53.655Z,10.40
2019-04-12T13:12:23.129Z,10.10
2019-04-12T13:14:54.091Z,10.30
2019-04-12T13:17:23.601Z,10.40
2019-04-12T13:19:53.233Z,10.40
2019-04-12T13:22:22.935Z,10.40
2019-04-12T13:24:52.429Z,10.10
2019-04-12T13:27:21.947Z,10.10
2019-04-12T13:30:06.031Z,10.20
2019-04-12T13:32:50.754Z,10.40
2019-04-12T13:35:49.224Z,10.40
2019-04-12T13:38:36.235Z,9.90
2019-04-12T13:41:06.002Z,10.00
2019-04-12T13:43:35.486Z,10.20
2019-04-12T13:46:05.095Z,10.00
2019-04-12T13:48:34.648Z,10.10
2019-04-12T13:51:04.219Z,10.30
2019-04-12T13:53:33.737Z,9.90
2019-04-12T13:56:03.769Z,10.20
2019-04-12T13:58:33.311Z,10.30
2019-04-12T14:01:02.875Z,10.10
2019-04-12T14:03:32.344Z,10.30
2019-04-12T14:06:01.895Z,10.20
2019-04-12T14:08:31.454Z,9.80
2019-04-12T14:11:00.930Z,10.30
2019-04-12T14:13:30.409Z,10.60
2019-04-12T14:16:00.150Z,10.50
2019-04-12T14:18:29.769Z,9.90
2019-04-12T14:20:59.560Z,9.60
2019-04-12T14:23:29.120Z,9.70
2019-04-12T14:25:58.701Z,9.60
2019-04-12T14:28:30.372Z,10.10
2019-04-12T14:31:04.956Z,9.80
2019-04-12T14:33:52.072Z,10.20
2019-04-12T14:36:46.330Z,10.00
2019-04-12T14:39:20.510Z,10.40
2019-04-12T14:41:50.260Z,10.40
2019-04-12T14:44:31.905Z,10.00
2019-04-12T14:47:05.808Z,9.40
2019-04-12T14:49:35.310Z,9.80
2019-04-12T14:52:04.938Z,10.20
2019-04-12T14:54:34.925Z,10.40
2019-04-12T14:57:04.528Z,10.20
2019-04-12T14:59:34.014Z,10.00
2019-04-12T15:02:03.504Z,9.90
2019-04-12T15:04:34.827Z,10.00
2019-04-12T15:07:04.252Z,10.30
2019-04-12T15:09:33.711Z,10.20
2019-04-12T15:12:03.182Z,10.00
2019-04-12T15:14:34.042Z,10.10
2019-04-12T15:17:03.733Z,10.30
2019-04-12T15:19:33.259Z,10.30
2019-04-12T15:22:02.725Z,10.00
2019-04-12T15:24:33.227Z,9.40
2019-04-12T15:27:02.693Z,9.50
2019-04-12T15:29:32.144Z,9.60
2019-04-12T15:32:01.652Z,9.20
2019-04-12T15:34:32.186Z,9.40
2019-04-12T15:37:01.666Z,9.70
2019-04-12T15:39:31.294Z,9.70
2019-04-12T15:42:00.868Z,10.00
2019-04-12T15:44:30.353Z,10.10
2019-04-12T15:46:59.847Z,10.20
2019-04-12T15:49:29.290Z,9.40
2019-04-12T15:51:59.278Z,8.90
2019-04-12T15:54:28.759Z,9.30
2019-04-12T15:56:58.249Z,9.80
2019-04-12T15:59:27.741Z,9.70
2019-04-12T16:01:57.186Z,9.70
2019-04-12T16:04:26.792Z,9.80
2019-04-12T16:06:56.184Z,10.00
2019-04-12T16:09:29.221Z,10.00
2019-04-12T16:12:38.814Z,9.90
2019-04-12T16:15:50.357Z,10.00
2019-04-12T16:18:19.831Z,9.50
2019-04-12T16:20:49.289Z,9.60
2019-04-12T16:23:21.181Z,9.80
2019-04-12T16:25:49.913Z,9.80
2019-04-12T16:28:38.248Z,9.70
2019-04-12T16:31:29.397Z,9.80
2019-04-12T16:34:17.830Z,9.70
2019-04-12T16:36:51.506Z,9.80
2019-04-12T16:39:22.210Z,9.40
2019-04-12T16:41:51.648Z,9.60
2019-04-12T16:44:23.625Z,9.80
2019-04-12T16:46:52.313Z,9.90
2019-04-12T16:49:23.585Z,9.90
2019-04-12T16:51:53.054Z,9.70
2019-04-12T16:54:22.545Z,9.70
2019-04-12T16:56:52.079Z,9.40
2019-04-12T16:59:21.585Z,9.40
2019-04-12T17:01:51.172Z,9.60
2019-04-12T17:04:20.643Z,9.60
2019-04-12T17:06:51.248Z,9.40
2019-04-12T17:09:20.677Z,9.60
2019-04-12T17:11:50.124Z,9.50
2019-04-12T17:14:19.660Z,8.90
2019-04-12T17:16:49.114Z,9.20
2019-04-12T17:19:18.580Z,9.40
2019-04-12T17:21:48.047Z,9.60
2019-04-12T17:24:17.506Z,9.50
2019-04-12T17:26:46.951Z,9.20
2019-04-12T17:29:16.410Z,9.50
2019-04-12T17:31:49.246Z,9.50
2019-04-12T17:34:17.213Z,9.30
2019-04-12T17:36:46.645Z,9.40
2019-04-12T17:39:16.105Z,9.50
2019-04-12T17:41:45.546Z,9.40
2019-04-12T17:44:15.008Z,9.40
2019-04-12T17:46:44.459Z,9.10
2019-04-12T17:49:20.403Z,9.10
2019-04-12T17:51:58.561Z,9.30
2019-04-12T17:54:45.790Z,9.40
2019-04-12T17:57:15.539Z,9.40
2019-04-12T17:59:45.025Z,9.30
2019-04-12T18:02:39.528Z,9.30
2019-04-12T18:05:11.420Z,9.30
2019-04-12T18:07:40.867Z,9.30
2019-04-12T18:10:11.043Z,9.30
2019-04-12T18:12:40.517Z,9.30
2019-04-12T18:15:12.975Z,9.30
2019-04-12T18:17:43.276Z,9.20
2019-04-12T18:20:12.963Z,9.30
2019-04-12T18:22:43.079Z,9.30
2019-04-12T18:25:13.195Z,9.30
2019-04-12T18:27:44.178Z,9.30
2019-04-12T18:30:14.191Z,9.20
2019-04-12T18:32:43.630Z,9.20
2019-04-12T18:35:13.972Z,9.10
2019-04-12T18:37:44.409Z,8.80
2019-04-12T18:40:14.469Z,8.80
2019-04-12T18:42:44.612Z,8.80
2019-04-12T18:45:15.321Z,8.80
2019-04-12T18:47:45.077Z,9.00
2019-04-12T18:50:14.956Z,8.90
2019-04-12T18:52:44.854Z,9.00
2019-04-12T18:55:14.687Z,9.00
2019-04-12T18:57:44.742Z,9.00
2019-04-12T19:00:15.558Z,9.00
2019-04-12T19:02:45.308Z,8.90
2019-04-12T19:05:15.169Z,8.80
2019-04-12T19:07:44.753Z,8.90
2019-04-12T19:10:14.765Z,8.70
2019-04-12T19:12:45.038Z,8.80
2019-04-12T19:15:19.130Z,8.80
2019-04-12T19:17:48.643Z,8.70
2019-04-12T19:20:19.736Z,8.30
2019-04-12T19:22:49.754Z,8.50
2019-04-12T19:25:19.671Z,8.30
2019-04-12T19:27:50.044Z,8.40
2019-04-12T19:30:22.750Z,8.60
2019-04-12T19:33:14.613Z,8.30
2019-04-12T19:36:02.977Z,8.60
2019-04-12T19:38:45.225Z,8.00
2019-04-12T19:41:16.677Z,8.20
2019-04-12T19:43:46.255Z,7.80
2019-04-12T19:46:16.173Z,7.90
2019-04-12T19:48:46.031Z,7.90
2019-04-12T19:51:15.490Z,8.10
2019-04-12T19:53:46.123Z,8.30
2019-04-12T19:56:15.822Z,7.80
2019-04-12T19:58:45.781Z,7.80
2019-04-12T20:01:15.556Z,7.80
2019-04-12T20:03:45.316Z,8.20
2019-04-12T20:06:16.722Z,8.00
2019-04-12T20:08:46.841Z,8.10
2019-04-12T20:11:16.713Z,8.20
2019-04-12T20:13:46.279Z,8.20
2019-04-12T20:16:16.007Z,8.10
2019-04-12T20:18:45.591Z,8.00
2019-04-12T20:21:15.388Z,8.10
2019-04-12T20:23:45.199Z,7.60
2019-04-12T20:26:14.678Z,7.00
2019-04-12T20:28:44.161Z,7.10
2019-04-12T20:31:13.634Z,6.60
2019-04-12T20:33:43.105Z,7.60
2019-04-12T20:36:12.581Z,7.90
2019-04-12T20:38:42.072Z,7.40
2019-04-12T20:41:11.509Z,7.70
2019-04-12T20:43:41.104Z,7.50
2019-04-12T20:46:10.541Z,7.50
2019-04-12T20:48:40.012Z,7.20
2019-04-12T20:51:09.448Z,6.60
2019-04-12T20:53:38.919Z,6.60
2019-04-12T20:56:15.552Z,7.10
2019-04-12T20:58:40.569Z,6.10
2019-04-12T21:01:10.062Z,6.90
2019-04-12T21:03:39.520Z,7.70
2019-04-12T21:06:08.971Z,8.00
2019-04-12T21:08:38.444Z,8.00
2019-04-12T21:11:07.880Z,7.90
2019-04-12T21:13:37.343Z,7.90
2019-04-12T21:16:06.789Z,7.00
2019-04-12T21:18:36.261Z,6.70
2019-04-12T21:21:05.771Z,7.10
2019-04-12T21:23:35.188Z,6.70
2019-04-12T21:26:04.653Z,7.00
2019-04-12T21:28:34.122Z,7.50
2019-04-12T21:31:03.627Z,7.50
2019-04-12T21:33:33.109Z,7.80
2019-04-12T21:36:02.610Z,7.90
2019-04-12T21:38:32.113Z,7.80
2019-04-12T21:41:01.583Z,7.10
2019-04-12T21:43:31.174Z,6.10
2019-04-12T21:46:00.720Z,6.00
2019-04-12T21:48:30.197Z,6.40
2019-04-12T21:50:59.645Z,6.30
2019-04-12T21:53:29.127Z,7.10
2019-04-12T21:55:58.601Z,7.40
2019-04-12T21:58:28.042Z,7.40
2019-04-12T22:01:01.970Z,7.30
2019-04-12T22:03:40.722Z,6.20
2019-04-12T22:06:03.064Z,6.50
2019-04-12T22:08:34.001Z,7.30
2019-04-12T22:11:03.732Z,7.60
2019-04-12T22:13:33.182Z,7.70
2019-04-12T22:16:02.673Z,7.60
2019-04-12T22:18:32.126Z,6.70
2019-04-12T22:21:01.590Z,5.60
2019-04-12T22:23:31.049Z,6.00
2019-04-12T22:26:00.537Z,6.20
2019-04-12T22:28:29.988Z,5.70
2019-04-12T22:30:59.597Z,6.90
2019-04-12T22:33:29.047Z,7.10
2019-04-12T22:35:58.609Z,6.30
2019-04-12T22:38:28.037Z,6.90
2019-04-12T22:40:57.545Z,5.90
2019-04-12T22:43:26.989Z,6.30
2019-04-12T22:45:56.469Z,6.00
2019-04-12T22:48:25.928Z,5.40
2019-04-12T22:50:55.394Z,5.80
2019-04-12T22:53:24.871Z,6.10
2019-04-12T22:55:54.346Z,6.30
2019-04-12T22:58:23.796Z,6.90
2019-04-12T23:00:53.340Z,7.30
2019-04-12T23:03:22.802Z,6.50
2019-04-12T23:05:52.266Z,5.80
2019-04-12T23:08:21.780Z,5.90
2019-04-12T23:10:51.235Z,5.50
2019-04-12T23:13:20.674Z,5.20
2019-04-12T23:15:50.225Z,5.70
2019-04-12T23:18:19.669Z,5.90
2019-04-12T23:20:49.194Z,6.90
2019-04-12T23:23:18.619Z,7.20
2019-04-12T23:25:51.353Z,7.40
2019-04-12T23:28:21.638Z,7.40
2019-04-12T23:31:16.078Z,7.30
2019-04-12T23:34:16.602Z,7.40
2019-04-12T23:36:38.418Z,7.30
2019-04-12T23:39:08.170Z,6.80
2019-04-12T23:41:37.701Z,7.00
2019-04-12T23:44:07.141Z,7.20
2019-04-12T23:46:36.616Z,7.00
2019-04-12T23:49:06.063Z,6.90
2019-04-12T23:51:35.570Z,7.00
2019-04-12T23:54:05.125Z,7.20
2019-04-12T23:56:34.598Z,7.30
2019-04-12T23:59:04.046Z,7.30
